createdAt,value
2017-07-18T00:00:35.035Z,8.70
2017-07-18T00:03:02.639Z,7.90
2017-07-18T00:05:30.295Z,7.13
2017-07-18T00:07:57.813Z,8.97
2017-07-18T00:10:26.134Z,8.10
2017-07-18T00:12:54.173Z,7.30
2017-07-18T00:15:22.453Z,7.70
2017-07-18T00:17:50.035Z,7.80
2017-07-18T00:20:17.607Z,10.03
2017-07-18T00:22:45.160Z,7.90
2017-07-18T00:25:12.821Z,8.37
2017-07-18T00:27:40.381Z,8.37
2017-07-18T00:30:07.936Z,8.77
2017-07-18T00:32:35.473Z,8.93
2017-07-18T00:35:02.992Z,8.73
2017-07-18T00:37:30.622Z,9.67
2017-07-18T00:39:58.280Z,9.60
2017-07-18T00:42:25.843Z,13.13
2017-07-18T00:44:53.404Z,10.73
2017-07-18T00:47:20.941Z,9.13
2017-07-18T00:49:48.458Z,9.63
2017-07-18T00:52:16.084Z,9.37
2017-07-18T00:54:43.655Z,9.07
2017-07-18T00:57:11.178Z,12.10
2017-07-18T00:59:38.694Z,9.40
2017-07-18T01:02:06.239Z,9.27
2017-07-18T01:04:33.881Z,8.97
2017-07-18T01:07:01.418Z,7.73
2017-07-18T01:09:28.957Z,8.77
2017-07-18T01:11:57.241Z,10.07
2017-07-18T01:14:25.551Z,8.77
2017-07-18T01:16:53.089Z,10.60
2017-07-18T01:19:20.614Z,11.50
2017-07-18T01:21:48.344Z,9.33
2017-07-18T01:24:15.897Z,8.83
2017-07-18T01:26:43.449Z,8.53
2017-07-18T01:29:11.014Z,9.23
2017-07-18T01:31:38.551Z,8.50
2017-07-18T01:34:06.139Z,8.77
2017-07-18T01:36:33.692Z,8.73
2017-07-18T01:39:01.353Z,8.90
2017-07-18T01:41:29.015Z,9.50
2017-07-18T01:43:56.533Z,8.23
2017-07-18T01:46:24.953Z,9.53
2017-07-18T01:48:52.513Z,8.13
2017-07-18T01:51:20.035Z,9.67
2017-07-18T01:53:48.351Z,9.00
2017-07-18T01:56:16.015Z,11.33
2017-07-18T01:58:43.535Z,9.87
2017-07-18T02:01:12.054Z,9.50
2017-07-18T02:03:39.616Z,11.47
2017-07-18T02:06:07.134Z,9.83
2017-07-18T02:08:35.553Z,10.97
2017-07-18T02:11:03.110Z,9.53
2017-07-18T02:13:30.630Z,9.83
2017-07-18T02:15:58.938Z,10.60
2017-07-18T02:18:26.514Z,9.10
2017-07-18T02:20:54.071Z,9.63
2017-07-18T02:23:21.629Z,9.80
2017-07-18T02:25:49.153Z,9.73
2017-07-18T02:28:17.443Z,9.90
2017-07-18T02:30:44.986Z,10.20
2017-07-18T02:33:13.269Z,10.40
2017-07-18T02:35:40.786Z,9.63
2017-07-18T02:38:08.330Z,9.97
2017-07-18T02:40:35.981Z,9.50
2017-07-18T02:43:03.540Z,10.40
2017-07-18T02:45:31.097Z,9.80
2017-07-18T02:47:58.621Z,10.40
2017-07-18T02:50:26.942Z,9.83
2017-07-18T02:52:54.496Z,11.77
2017-07-18T02:55:22.017Z,10.87
2017-07-18T02:57:50.307Z,11.27
2017-07-18T03:00:17.845Z,10.67
2017-07-18T03:02:46.135Z,12.37
2017-07-18T03:05:14.444Z,10.63
2017-07-18T03:07:42.004Z,10.63
2017-07-18T03:10:09.527Z,9.50
2017-07-18T03:12:37.842Z,9.83
2017-07-18T03:15:05.400Z,9.17
2017-07-18T03:17:32.918Z,10.23
2017-07-18T03:20:01.242Z,11.20
2017-07-18T03:22:28.787Z,11.37
2017-07-18T03:24:56.319Z,12.53
2017-07-18T03:27:24.637Z,11.20
2017-07-18T03:29:52.197Z,11.90
2017-07-18T03:32:19.728Z,11.73
2017-07-18T03:34:47.264Z,12.17
2017-07-18T03:37:15.594Z,11.33
2017-07-18T03:39:44.069Z,9.07
2017-07-18T03:42:11.590Z,16.60
2017-07-18T03:44:39.902Z,11.13
2017-07-18T03:47:07.420Z,12.03
2017-07-18T03:49:35.705Z,10.33
2017-07-18T03:52:04.124Z,9.77
2017-07-18T03:54:31.640Z,8.43
2017-07-18T03:56:59.159Z,8.93
2017-07-18T03:59:26.712Z,8.40
2017-07-18T04:01:54.263Z,8.67
2017-07-18T04:04:21.817Z,8.53
2017-07-18T04:06:49.359Z,8.60
2017-07-18T04:09:17.041Z,10.23
2017-07-18T04:11:44.702Z,9.37
2017-07-18T04:14:12.267Z,9.47
2017-07-18T04:16:39.791Z,9.47
2017-07-18T04:19:07.322Z,10.60
2017-07-18T04:21:34.866Z,11.67
2017-07-18T04:24:03.628Z,11.27
2017-07-18T04:26:31.150Z,9.50
2017-07-18T04:28:59.457Z,10.57
2017-07-18T04:31:27.029Z,12.53
2017-07-18T04:33:54.685Z,11.47
2017-07-18T04:36:22.250Z,11.07
2017-07-18T04:38:49.774Z,9.87
2017-07-18T04:41:18.083Z,11.27
2017-07-18T04:43:45.643Z,10.17
2017-07-18T04:46:13.258Z,11.63
2017-07-18T04:48:41.609Z,10.37
2017-07-18T04:51:09.242Z,11.43
2017-07-18T04:53:36.758Z,9.93
2017-07-18T04:56:05.039Z,9.93
2017-07-18T04:58:33.345Z,10.57
2017-07-18T05:01:00.865Z,10.83
2017-07-18T05:03:28.478Z,10.60
2017-07-18T05:08:31.664Z,11.30
2017-07-18T05:10:59.242Z,9.70
2017-07-18T05:13:26.765Z,10.63
2017-07-18T05:15:55.081Z,12.23
2017-07-18T05:18:22.612Z,9.80
2017-07-18T05:20:50.138Z,10.60
2017-07-18T05:23:17.689Z,11.20
2017-07-18T05:25:45.218Z,10.53
2017-07-18T05:28:12.742Z,10.53
2017-07-18T05:30:41.156Z,11.47
2017-07-18T05:33:08.817Z,12.80
2017-07-18T05:35:36.378Z,9.73
2017-07-18T05:38:03.918Z,10.27
2017-07-18T05:40:31.450Z,11.57
2017-07-18T05:42:59.771Z,10.80
2017-07-18T05:45:27.327Z,10.63
2017-07-18T05:47:54.851Z,10.97
2017-07-18T05:50:23.179Z,11.40
2017-07-18T05:52:50.834Z,10.57
2017-07-18T05:55:18.362Z,10.83
2017-07-18T05:57:45.896Z,11.17
2017-07-18T06:00:13.435Z,10.53
2017-07-18T06:02:40.979Z,11.87
2017-07-18T06:05:08.531Z,10.27
2017-07-18T06:07:36.071Z,10.27
2017-07-18T06:10:03.595Z,9.53
2017-07-18T06:12:34.439Z,10.80
2017-07-18T06:15:02.747Z,12.43
2017-07-18T06:17:30.329Z,10.27
2017-07-18T06:19:57.882Z,10.77
2017-07-18T06:22:25.430Z,9.90
2017-07-18T06:24:53.018Z,10.00
2017-07-18T06:27:20.569Z,9.10
2017-07-18T06:29:48.217Z,12.03
2017-07-18T06:32:15.744Z,9.87
2017-07-18T06:34:44.035Z,7.77
2017-07-18T06:37:12.582Z,8.87
2017-07-18T06:39:40.737Z,8.83
2017-07-18T06:42:08.608Z,13.23
2017-07-18T06:44:36.166Z,10.20
2017-07-18T06:47:03.685Z,11.17
2017-07-18T06:49:31.363Z,7.33
2017-07-18T06:51:58.903Z,9.00
2017-07-18T06:54:26.477Z,7.53
2017-07-18T06:56:53.994Z,10.93
2017-07-18T06:59:22.318Z,7.17
2017-07-18T07:01:49.834Z,8.30
2017-07-18T07:04:18.161Z,7.37
2017-07-18T07:06:45.815Z,9.30
2017-07-18T07:09:13.339Z,9.50
2017-07-18T07:11:41.622Z,7.93
2017-07-18T07:14:09.166Z,7.73
2017-07-18T07:16:37.495Z,7.03
2017-07-18T07:19:05.023Z,8.30
2017-07-18T07:21:32.570Z,7.67
2017-07-18T07:24:00.882Z,8.50
2017-07-18T07:26:28.411Z,6.73
2017-07-18T07:28:56.924Z,7.13
2017-07-18T07:31:24.446Z,9.20
2017-07-18T07:33:52.742Z,7.30
2017-07-18T07:36:20.282Z,8.10
2017-07-18T07:38:48.607Z,6.30
2017-07-18T07:41:16.170Z,6.93
2017-07-18T07:43:43.819Z,6.83
2017-07-18T07:46:11.345Z,6.63
2017-07-18T07:48:39.649Z,6.90
2017-07-18T07:51:07.189Z,6.67
2017-07-18T07:53:34.717Z,6.80
2017-07-18T07:56:02.437Z,7.10
2017-07-18T07:58:30.003Z,5.97
2017-07-18T08:00:57.541Z,6.77
2017-07-18T08:03:25.123Z,9.20
2017-07-18T08:18:57.749Z,6.23
2017-07-18T08:21:27.999Z,6.53
2017-07-18T08:23:55.568Z,6.20
2017-07-18T08:26:23.394Z,6.47
2017-07-18T08:28:51.688Z,7.10
2017-07-18T08:31:19.218Z,6.43
2017-07-18T08:33:46.829Z,5.00
2017-07-18T08:36:14.346Z,5.63
2017-07-18T08:38:42.673Z,5.33
2017-07-18T08:41:10.215Z,4.80
2017-07-18T08:43:37.749Z,5.20
2017-07-18T08:46:06.076Z,4.93
2017-07-18T08:48:33.625Z,5.17
2017-07-18T08:51:01.143Z,7.10
2017-07-18T08:53:28.673Z,5.40
2017-07-18T08:55:56.215Z,5.30
2017-07-18T08:58:23.744Z,4.90
2017-07-18T09:00:51.272Z,5.20
2017-07-18T09:03:19.597Z,4.70
2017-07-18T09:05:47.121Z,4.47
2017-07-18T09:08:14.642Z,5.07
2017-07-18T09:10:42.190Z,5.03
2017-07-18T09:13:09.707Z,4.43
2017-07-18T09:15:37.294Z,4.33
2017-07-18T09:18:04.829Z,5.10
2017-07-18T09:20:32.418Z,5.50
2017-07-18T09:22:59.946Z,4.40
2017-07-18T09:25:27.633Z,4.57
2017-07-18T09:27:55.194Z,4.60
2017-07-18T09:30:22.753Z,4.30
2017-07-18T09:32:50.300Z,5.60
2017-07-18T09:35:17.833Z,4.00
2017-07-18T09:37:45.444Z,4.90
2017-07-18T09:40:12.993Z,4.60
2017-07-18T09:42:40.551Z,4.63
2017-07-18T09:45:08.068Z,6.10
2017-07-18T09:47:36.388Z,5.00
2017-07-18T09:50:03.907Z,4.80
2017-07-18T09:52:31.439Z,13.03
2017-07-18T09:54:58.981Z,4.43
2017-07-18T09:57:26.526Z,4.60
2017-07-18T09:59:54.093Z,4.67
2017-07-18T10:02:21.632Z,4.20
2017-07-18T10:04:49.206Z,4.30
2017-07-18T10:07:16.739Z,4.60
2017-07-18T10:09:44.276Z,4.90
2017-07-18T10:12:12.818Z,4.10
2017-07-18T10:14:40.368Z,4.43
2017-07-18T10:17:08.028Z,4.33
2017-07-18T10:19:35.586Z,5.30
2017-07-18T10:22:03.107Z,7.47
2017-07-18T10:24:30.714Z,4.50
2017-07-18T10:26:58.276Z,5.80
2017-07-18T10:29:25.802Z,5.10
2017-07-18T10:31:53.338Z,4.57
2017-07-18T10:34:21.827Z,7.93
2017-07-18T10:36:49.346Z,4.20
2017-07-18T10:39:16.885Z,3.43
2017-07-18T10:41:44.454Z,3.90
2017-07-18T10:44:11.975Z,5.13
2017-07-18T10:46:39.520Z,4.30
2017-07-18T10:49:07.047Z,4.00
2017-07-18T10:51:34.584Z,4.20
2017-07-18T10:54:02.127Z,3.37
2017-07-18T10:56:29.659Z,3.50
2017-07-18T10:58:57.963Z,3.20
2017-07-18T11:01:25.638Z,3.90
2017-07-18T11:03:53.169Z,3.80
2017-07-18T11:06:21.471Z,4.03
2017-07-18T11:08:49.036Z,3.53
2017-07-18T11:11:16.572Z,3.20
2017-07-18T11:13:44.094Z,3.23
2017-07-18T11:16:11.640Z,3.27
2017-07-18T11:18:39.170Z,3.30
2017-07-18T11:21:06.730Z,3.10
2017-07-18T11:23:35.773Z,3.50
2017-07-18T11:26:03.298Z,3.33
2017-07-18T11:28:30.817Z,3.10
2017-07-18T11:30:58.842Z,3.00
2017-07-18T11:33:26.363Z,3.27
2017-07-18T11:35:53.938Z,3.00
2017-07-18T11:38:22.824Z,3.27
2017-07-18T11:40:51.729Z,2.83
2017-07-18T11:43:20.709Z,2.40
2017-07-18T11:45:49.740Z,2.43
2017-07-18T11:48:18.714Z,2.50
2017-07-18T11:50:47.606Z,2.87
2017-07-18T11:53:16.598Z,2.83
2017-07-18T11:55:45.573Z,2.60
2017-07-18T11:58:14.475Z,2.28
2017-07-18T12:00:42.027Z,3.05
2017-07-18T12:03:09.549Z,2.40
2017-07-18T12:05:37.843Z,2.50
2017-07-18T12:08:05.412Z,2.00
2017-07-18T12:10:32.990Z,2.62
2017-07-18T12:13:00.540Z,3.60
2017-07-18T12:15:28.206Z,2.25
2017-07-18T12:17:55.765Z,2.78
2017-07-18T12:20:23.289Z,2.03
2017-07-18T12:22:50.894Z,1.85
2017-07-18T12:25:18.446Z,2.08
2017-07-18T12:27:46.006Z,2.70
2017-07-18T12:30:13.541Z,3.15
2017-07-18T12:32:41.122Z,3.28
2017-07-18T12:35:08.649Z,2.30
2017-07-18T12:37:37.889Z,2.47
2017-07-18T12:40:05.447Z,2.33
2017-07-18T12:42:33.005Z,2.60
2017-07-18T12:45:00.548Z,2.15
2017-07-18T12:47:28.222Z,2.17
2017-07-18T12:49:55.883Z,2.15
2017-07-18T12:52:23.437Z,3.72
2017-07-18T12:54:51.207Z,1.98
2017-07-18T12:57:18.733Z,2.42
2017-07-18T12:59:46.431Z,3.67
2017-07-18T13:02:13.991Z,2.17
2017-07-18T13:04:41.514Z,2.42
2017-07-18T13:07:09.923Z,2.10
2017-07-18T13:09:37.484Z,2.25
2017-07-18T13:12:05.046Z,2.33
2017-07-18T13:14:32.610Z,2.80
2017-07-18T13:17:00.134Z,4.18
2017-07-18T13:19:28.749Z,3.20
2017-07-18T13:21:57.272Z,2.80
2017-07-18T13:24:24.893Z,3.12
2017-07-18T13:26:52.452Z,2.70
2017-07-18T13:29:20.017Z,3.00
2017-07-18T13:31:47.587Z,2.95
2017-07-18T13:34:15.117Z,2.83
2017-07-18T13:36:42.661Z,2.90
2017-07-18T13:39:10.942Z,2.60
2017-07-18T13:41:38.473Z,2.45
2017-07-18T13:44:06.097Z,2.60
2017-07-18T13:46:33.648Z,2.72
2017-07-18T13:49:01.332Z,5.45
2017-07-18T13:51:28.882Z,1.90
2017-07-18T13:53:56.429Z,3.35
2017-07-18T13:56:23.947Z,2.35
2017-07-18T13:58:52.371Z,2.72
2017-07-18T14:01:20.030Z,2.28
2017-07-18T14:03:47.588Z,2.55
2017-07-18T14:06:15.129Z,3.10
2017-07-18T14:08:42.654Z,2.92
2017-07-18T14:11:10.372Z,3.10
2017-07-18T14:13:38.037Z,3.50
2017-07-18T14:16:05.614Z,2.78
2017-07-18T14:18:33.138Z,3.05
2017-07-18T14:21:00.709Z,3.05
2017-07-18T14:23:28.233Z,2.67
2017-07-18T14:25:56.517Z,3.08
2017-07-18T14:28:24.927Z,2.62
2017-07-18T14:30:52.486Z,2.85
2017-07-18T14:33:20.049Z,2.50
2017-07-18T14:35:48.532Z,2.78
2017-07-18T14:38:16.054Z,2.80
2017-07-18T14:40:44.377Z,2.67
2017-07-18T14:43:11.925Z,3.22
2017-07-18T14:45:39.485Z,2.70
2017-07-18T14:48:07.047Z,2.62
2017-07-18T14:50:34.577Z,2.80
2017-07-18T14:53:02.163Z,2.58
2017-07-18T14:55:29.686Z,2.65
2017-07-18T14:57:57.995Z,2.75
2017-07-18T15:00:25.563Z,4.10
2017-07-18T15:02:53.123Z,2.70
2017-07-18T15:05:20.682Z,2.90
2017-07-18T15:07:48.238Z,3.28
2017-07-18T15:10:15.763Z,2.72
2017-07-18T15:12:44.070Z,3.03
2017-07-18T15:15:11.636Z,2.40
2017-07-18T15:17:39.198Z,2.78
2017-07-18T15:20:06.734Z,2.75
2017-07-18T15:22:34.314Z,3.20
2017-07-18T15:25:01.886Z,3.58
2017-07-18T15:27:29.434Z,3.00
2017-07-18T15:29:56.950Z,3.42
2017-07-18T15:32:24.498Z,3.55
2017-07-18T15:34:52.113Z,3.62
2017-07-18T15:37:19.673Z,3.75
2017-07-18T15:39:47.194Z,3.33
2017-07-18T15:42:15.609Z,3.50
2017-07-18T15:44:43.498Z,3.25
2017-07-18T15:47:11.035Z,6.43
2017-07-18T15:49:38.593Z,3.60
2017-07-18T15:52:06.153Z,3.15
2017-07-18T15:54:33.669Z,4.10
2017-07-18T15:57:02.091Z,3.30
2017-07-18T15:59:29.624Z,3.65
2017-07-18T16:01:57.213Z,3.42
2017-07-18T16:04:24.745Z,3.78
2017-07-18T16:06:52.335Z,3.05
2017-07-18T16:09:19.858Z,3.17
2017-07-18T16:11:48.167Z,3.45
2017-07-18T16:14:15.692Z,10.77
2017-07-18T16:16:43.980Z,6.37
2017-07-18T16:19:11.662Z,5.10
2017-07-18T16:21:39.220Z,5.85
2017-07-18T16:24:06.778Z,4.32
2017-07-18T16:26:34.316Z,3.62
2017-07-18T16:29:01.902Z,4.90
2017-07-18T16:31:29.462Z,5.45
2017-07-18T16:33:57.121Z,3.72
2017-07-18T16:36:24.687Z,3.75
2017-07-18T16:38:52.214Z,4.20
2017-07-18T16:41:19.761Z,8.67
2017-07-18T16:43:48.125Z,5.23
2017-07-18T16:46:16.454Z,5.00
2017-07-18T16:48:44.115Z,4.20
2017-07-18T16:51:11.625Z,4.83
2017-07-18T16:53:39.945Z,4.73
2017-07-18T16:56:07.511Z,4.10
2017-07-18T16:58:35.069Z,4.50
2017-07-18T17:01:02.585Z,7.60
2017-07-18T17:03:31.257Z,8.10
2017-07-18T17:05:58.873Z,7.67
2017-07-18T17:08:26.396Z,7.03
2017-07-18T17:10:54.701Z,9.87
2017-07-18T17:13:22.280Z,6.93
2017-07-18T17:15:49.797Z,5.40
2017-07-18T17:18:18.120Z,5.33
2017-07-18T17:20:45.664Z,5.40
2017-07-18T17:23:13.266Z,8.83
2017-07-18T17:25:40.832Z,4.53
2017-07-18T17:28:08.450Z,4.80
2017-07-18T17:30:35.970Z,6.57
2017-07-18T17:33:04.287Z,4.50
2017-07-18T17:35:31.802Z,4.80
2017-07-18T17:38:00.102Z,5.30
2017-07-18T17:40:27.637Z,5.67
2017-07-18T17:42:55.959Z,5.73
2017-07-18T17:45:23.497Z,4.53
2017-07-18T17:47:51.175Z,5.53
2017-07-18T17:50:19.050Z,5.30
2017-07-18T17:52:46.598Z,4.87
2017-07-18T17:55:14.158Z,6.13
2017-07-18T17:57:41.685Z,4.30
2017-07-18T18:00:09.967Z,5.77
2017-07-18T18:02:37.512Z,9.40
2017-07-18T18:05:05.819Z,14.00
2017-07-18T18:07:33.348Z,5.30
2017-07-18T18:10:01.587Z,5.00
2017-07-18T18:12:29.120Z,4.10
2017-07-18T18:14:56.682Z,4.37
2017-07-18T18:17:24.236Z,4.80
2017-07-18T18:19:51.807Z,6.67
2017-07-18T18:22:19.338Z,4.43
2017-07-18T18:24:46.890Z,5.23
2017-07-18T18:27:14.422Z,12.60
2017-07-18T18:29:41.992Z,9.57
2017-07-18T18:32:09.567Z,5.50
2017-07-18T18:34:37.086Z,4.30
2017-07-18T18:37:04.635Z,5.43
2017-07-18T18:39:32.291Z,5.23
2017-07-18T18:41:59.825Z,4.70
2017-07-18T18:44:27.394Z,4.50
2017-07-18T18:46:55.023Z,4.93
2017-07-18T18:49:22.552Z,4.97
2017-07-18T18:51:50.069Z,4.90
2017-07-18T18:54:17.641Z,5.60
2017-07-18T18:56:45.297Z,5.60
2017-07-18T18:59:12.847Z,6.03
2017-07-18T19:01:40.405Z,4.90
2017-07-18T19:04:07.918Z,5.63
2017-07-18T19:06:35.523Z,5.70
2017-07-18T19:09:03.074Z,6.40
2017-07-18T19:11:30.633Z,5.63
2017-07-18T19:13:58.485Z,5.07
2017-07-18T19:16:26.086Z,4.80
2017-07-18T19:18:53.604Z,5.50
2017-07-18T19:22:35.632Z,4.57
2017-07-18T19:25:03.164Z,8.57
2017-07-18T19:27:30.695Z,5.63
2017-07-18T19:29:58.255Z,5.30
2017-07-18T19:32:25.788Z,5.60
2017-07-18T19:34:53.378Z,6.23
2017-07-18T19:37:21.707Z,5.73
2017-07-18T19:39:49.227Z,5.67
2017-07-18T19:42:17.525Z,5.67
2017-07-18T19:44:45.110Z,5.63
2017-07-18T19:47:12.678Z,5.97
2017-07-18T19:49:40.198Z,6.60
2017-07-18T19:52:07.752Z,6.13
2017-07-18T19:54:36.090Z,7.40
2017-07-18T19:57:03.626Z,5.53
2017-07-18T19:59:31.179Z,5.73
2017-07-18T20:01:58.732Z,6.00
2017-07-18T20:04:26.254Z,5.80
2017-07-18T20:06:54.557Z,7.03
2017-07-18T20:09:22.129Z,7.33
2017-07-18T20:11:50.589Z,5.50
2017-07-18T20:14:18.120Z,6.67
2017-07-18T20:16:46.470Z,6.77
2017-07-18T20:19:14.088Z,5.93
2017-07-18T20:21:41.629Z,6.23
2017-07-18T20:24:09.156Z,6.87
2017-07-18T20:26:36.682Z,6.60
2017-07-18T20:29:04.223Z,7.23
2017-07-18T20:31:31.760Z,7.23
2017-07-18T20:34:00.050Z,7.13
2017-07-18T20:36:27.590Z,6.57
2017-07-18T20:38:55.882Z,6.47
2017-07-18T20:41:23.481Z,7.47
2017-07-18T20:43:51.023Z,5.57
2017-07-18T20:46:18.629Z,6.30
2017-07-18T20:48:46.145Z,6.83
2017-07-18T20:51:13.706Z,6.77
2017-07-18T20:53:41.265Z,6.90
2017-07-18T20:56:09.760Z,7.77
2017-07-18T20:58:37.311Z,7.03
2017-07-18T21:01:04.821Z,7.60
2017-07-18T21:03:33.109Z,6.60
2017-07-18T21:06:01.422Z,6.90
2017-07-18T21:08:28.937Z,7.20
2017-07-18T21:10:57.254Z,7.90
2017-07-18T21:13:24.823Z,8.03
2017-07-18T21:15:52.371Z,8.27
2017-07-18T21:18:20.136Z,9.47
2017-07-18T21:20:47.673Z,8.20
2017-07-18T21:23:15.489Z,7.40
2017-07-18T21:25:43.005Z,8.23
2017-07-18T21:28:10.544Z,7.43
2017-07-18T21:30:38.825Z,7.93
2017-07-18T21:33:07.105Z,8.17
2017-07-18T21:35:34.640Z,8.03
2017-07-18T21:38:03.273Z,8.30
2017-07-18T21:40:30.795Z,7.97
2017-07-18T21:42:59.114Z,7.70
2017-07-18T21:45:26.642Z,7.53
2017-07-18T21:47:54.192Z,8.23
2017-07-18T21:50:22.609Z,8.80
2017-07-18T21:52:50.152Z,8.37
2017-07-18T21:55:17.731Z,8.60
2017-07-18T21:57:45.272Z,7.80
2017-07-18T22:00:14.182Z,8.13
2017-07-18T22:02:41.706Z,7.87
2017-07-18T22:05:09.294Z,7.63
2017-07-18T22:07:36.822Z,8.00
2017-07-18T22:10:04.416Z,6.97
2017-07-18T22:12:31.975Z,7.60
2017-07-18T22:14:59.497Z,7.77
2017-07-18T22:17:27.785Z,8.63
2017-07-18T22:19:55.321Z,9.47
2017-07-18T22:22:23.617Z,7.93
2017-07-18T22:24:51.205Z,7.47
2017-07-18T22:27:18.763Z,9.50
2017-07-18T22:29:46.321Z,9.57
2017-07-18T22:32:13.840Z,8.57
2017-07-18T22:34:42.154Z,8.43
2017-07-18T22:37:09.714Z,7.87
2017-07-18T22:39:37.274Z,8.07
2017-07-18T22:42:04.814Z,8.77
2017-07-18T22:44:32.338Z,8.20
2017-07-18T22:46:59.966Z,8.83
2017-07-18T22:49:27.514Z,8.53
2017-07-18T22:51:55.032Z,9.00
2017-07-18T22:54:23.320Z,9.57
2017-07-18T22:56:50.914Z,7.73
2017-07-18T22:59:18.682Z,8.40
2017-07-18T23:01:46.206Z,9.63
2017-07-18T23:04:13.745Z,9.90
2017-07-18T23:06:42.172Z,8.33
2017-07-18T23:09:09.730Z,8.83
2017-07-18T23:11:37.293Z,9.33
2017-07-18T23:14:04.845Z,8.30
2017-07-18T23:16:32.361Z,9.60
2017-07-18T23:19:00.683Z,8.10
2017-07-18T23:21:28.205Z,10.00
2017-07-18T23:23:56.496Z,8.30
2017-07-18T23:26:24.034Z,8.30
2017-07-18T23:28:52.322Z,8.80
2017-07-18T23:31:20.633Z,9.20
2017-07-18T23:33:48.295Z,9.13
2017-07-18T23:36:15.858Z,8.60
2017-07-18T23:38:43.378Z,9.63
2017-07-18T23:41:11.793Z,9.37
2017-07-18T23:43:39.353Z,9.13
2017-07-18T23:46:06.919Z,8.60
2017-07-18T23:48:34.468Z,9.47
2017-07-18T23:51:02.039Z,9.87
2017-07-18T23:53:29.556Z,9.40
2017-07-18T23:55:57.863Z,10.37
2017-07-18T23:58:25.390Z,9.50
